createdAt,value
2017-09-03T00:01:46.904Z,40.90
2017-09-03T00:04:13.242Z,41.17
2017-09-03T00:06:39.501Z,42.93
2017-09-03T00:09:05.868Z,50.07
2017-09-03T00:11:32.338Z,46.00
2017-09-03T00:13:58.719Z,48.50
2017-09-03T00:16:24.998Z,44.67
2017-09-03T00:18:51.315Z,43.83
2017-09-03T00:21:17.571Z,34.73
2017-09-03T00:23:43.906Z,41.03
2017-09-03T00:26:10.288Z,44.07
2017-09-03T00:28:36.556Z,42.63
2017-09-03T00:31:02.902Z,37.87
2017-09-03T00:33:29.199Z,40.50
2017-09-03T00:35:55.538Z,31.60
2017-09-03T00:38:21.800Z,43.60
2017-09-03T00:40:48.214Z,42.47
2017-09-03T00:43:14.467Z,56.70
2017-09-03T00:45:40.827Z,39.47
2017-09-03T00:48:07.223Z,53.37
2017-09-03T00:50:33.393Z,43.03
2017-09-03T00:52:59.680Z,37.60
2017-09-03T00:55:26.058Z,50.10
2017-09-03T00:57:52.349Z,59.63
2017-09-03T01:00:18.686Z,47.90
2017-09-03T01:02:44.963Z,55.37
2017-09-03T01:05:11.385Z,48.50
2017-09-03T01:07:37.908Z,65.37
2017-09-03T01:10:04.195Z,62.60
2017-09-03T01:12:30.559Z,61.07
2017-09-03T01:14:56.884Z,58.27
2017-09-03T01:17:23.127Z,44.23
2017-09-03T01:19:49.503Z,53.53
2017-09-03T01:22:15.711Z,41.43
2017-09-03T01:24:41.988Z,55.87
2017-09-03T01:27:08.273Z,62.30
2017-09-03T01:29:34.635Z,53.43
2017-09-03T01:32:00.906Z,75.63
2017-09-03T01:34:27.208Z,55.43
2017-09-03T01:36:54.423Z,57.37
2017-09-03T01:39:20.689Z,54.07
2017-09-03T01:41:46.884Z,53.73
2017-09-03T01:44:13.137Z,52.43
2017-09-03T01:46:39.433Z,45.43
2017-09-03T01:49:05.732Z,47.70
2017-09-03T01:51:32.044Z,41.80
2017-09-03T01:53:58.325Z,41.40
2017-09-03T01:56:24.589Z,50.03
2017-09-03T01:58:50.808Z,44.70
2017-09-03T02:01:17.064Z,40.17
2017-09-03T02:03:43.423Z,35.00
2017-09-03T02:06:09.717Z,29.80
2017-09-03T02:08:35.890Z,41.23
2017-09-03T02:11:02.163Z,48.07
2017-09-03T02:13:28.479Z,34.70
2017-09-03T02:15:54.688Z,33.10
2017-09-03T02:18:22.867Z,31.80
2017-09-03T02:20:49.311Z,46.90
2017-09-03T02:23:15.555Z,44.43
2017-09-03T02:25:41.818Z,52.73
2017-09-03T02:28:08.065Z,41.67
2017-09-03T02:30:34.354Z,50.50
2017-09-03T02:33:00.714Z,42.53
2017-09-03T02:35:27.068Z,46.30
2017-09-03T02:37:53.435Z,45.07
2017-09-03T02:40:19.723Z,42.70
2017-09-03T02:42:45.944Z,46.97
2017-09-03T02:45:13.092Z,29.53
2017-09-03T02:47:39.649Z,39.07
2017-09-03T02:50:05.980Z,29.37
2017-09-03T02:52:32.188Z,46.20
2017-09-03T02:54:58.388Z,40.10
2017-09-03T02:57:24.687Z,31.27
2017-09-03T02:59:50.967Z,33.90
2017-09-03T03:02:17.294Z,51.07
2017-09-03T03:04:43.556Z,50.30
2017-09-03T03:07:09.740Z,44.90
2017-09-03T03:09:36.057Z,36.97
2017-09-03T03:12:02.261Z,45.80
2017-09-03T03:14:28.584Z,45.03
2017-09-03T03:16:54.715Z,36.70
2017-09-03T03:19:20.917Z,30.80
2017-09-03T03:21:47.103Z,32.13
2017-09-03T03:24:13.315Z,26.80
2017-09-03T03:26:39.701Z,35.10
2017-09-03T03:29:05.954Z,46.00
2017-09-03T03:31:32.151Z,31.73
2017-09-03T03:33:58.453Z,33.37
2017-09-03T03:36:24.694Z,20.17
2017-09-03T03:38:50.976Z,33.27
2017-09-03T03:41:17.195Z,79.80
2017-09-03T03:43:43.452Z,54.00
2017-09-03T03:46:09.813Z,38.20
2017-09-03T03:48:35.997Z,39.03
2017-09-03T03:51:02.215Z,36.43
2017-09-03T03:53:28.531Z,46.87
2017-09-03T03:55:54.856Z,34.40
2017-09-03T03:58:21.147Z,30.43
2017-09-03T04:00:47.325Z,53.17
2017-09-03T04:03:13.520Z,51.93
2017-09-03T04:05:39.789Z,55.83
2017-09-03T04:08:06.071Z,41.27
2017-09-03T04:10:32.254Z,56.40
2017-09-03T04:12:58.539Z,48.03
2017-09-03T04:15:24.820Z,27.90
2017-09-03T04:17:51.047Z,48.53
2017-09-03T04:20:17.337Z,40.43
2017-09-03T04:22:43.541Z,46.23
2017-09-03T04:25:09.758Z,33.07
2017-09-03T04:27:35.993Z,39.80
2017-09-03T04:30:02.330Z,49.70
2017-09-03T04:32:28.540Z,41.73
2017-09-03T04:34:54.850Z,42.03
2017-09-03T04:37:21.061Z,29.60
2017-09-03T04:39:47.291Z,42.67
2017-09-03T04:42:13.489Z,54.33
2017-09-03T04:44:39.771Z,42.90
2017-09-03T04:47:06.176Z,51.17
2017-09-03T04:49:32.468Z,39.10
2017-09-03T04:51:58.699Z,42.80
2017-09-03T04:54:24.997Z,38.23
2017-09-03T04:56:51.267Z,38.63
2017-09-03T04:59:17.521Z,45.70
2017-09-03T05:01:43.774Z,39.80
2017-09-03T05:04:10.009Z,31.77
2017-09-03T05:06:36.287Z,45.53
2017-09-03T05:09:02.600Z,42.30
2017-09-03T05:11:28.834Z,42.60
2017-09-03T05:13:55.131Z,36.03
2017-09-03T05:16:21.466Z,39.40
2017-09-03T05:18:47.856Z,28.90
2017-09-03T05:21:14.083Z,33.43
2017-09-03T05:23:40.405Z,32.83
2017-09-03T05:26:06.886Z,28.30
2017-09-03T05:28:33.152Z,40.30
2017-09-03T05:30:59.418Z,22.93
2017-09-03T05:33:25.713Z,23.77
2017-09-03T05:35:51.990Z,25.67
2017-09-03T05:38:18.291Z,27.17
2017-09-03T05:40:44.528Z,36.57
2017-09-03T05:43:10.778Z,46.60
2017-09-03T05:45:36.987Z,36.23
2017-09-03T05:48:03.285Z,38.40
2017-09-03T05:50:29.670Z,36.40
2017-09-03T05:52:55.877Z,59.83
2017-09-03T05:55:22.231Z,44.67
2017-09-03T05:57:48.448Z,34.50
2017-09-03T06:00:14.795Z,38.93
2017-09-03T06:02:41.013Z,47.03
2017-09-03T06:05:07.297Z,30.73
2017-09-03T06:07:33.651Z,46.70
2017-09-03T06:09:59.916Z,45.50
2017-09-03T06:12:26.192Z,57.43
2017-09-03T06:14:52.396Z,52.77
2017-09-03T06:17:18.698Z,48.40
2017-09-03T06:19:45.137Z,38.43
2017-09-03T06:22:11.378Z,27.13
2017-09-03T06:24:37.715Z,22.53
2017-09-03T06:27:04.093Z,24.03
2017-09-03T06:29:30.409Z,18.43
2017-09-03T06:31:56.731Z,24.43
2017-09-03T06:34:23.100Z,19.90
2017-09-03T06:36:49.600Z,17.03
2017-09-03T06:39:15.832Z,9.13
2017-09-03T06:41:42.119Z,13.10
2017-09-03T06:44:08.431Z,8.63
2017-09-03T06:46:34.807Z,5.60
2017-09-03T06:49:01.055Z,7.70
2017-09-03T06:51:27.367Z,5.57
2017-09-03T06:53:53.666Z,6.90
2017-09-03T06:56:19.922Z,5.13
2017-09-03T06:58:46.408Z,4.90
2017-09-03T07:01:12.716Z,3.50
2017-09-03T07:03:39.100Z,2.83
2017-09-03T07:06:05.411Z,2.83
2017-09-03T07:08:31.675Z,3.40
2017-09-03T07:10:57.996Z,2.87
2017-09-03T07:13:24.243Z,2.87
2017-09-03T07:15:50.551Z,2.40
2017-09-03T07:18:17.620Z,2.67
2017-09-03T07:20:43.817Z,3.00
2017-09-03T07:23:10.186Z,3.03
2017-09-03T07:25:36.481Z,2.30
2017-09-03T07:28:02.704Z,2.23
2017-09-03T07:30:29.206Z,1.97
2017-09-03T07:32:55.466Z,2.80
2017-09-03T07:35:21.772Z,1.50
2017-09-03T07:37:48.032Z,1.90
2017-09-03T07:40:14.488Z,4.40
2017-09-03T07:42:41.427Z,2.40
2017-09-03T07:45:08.106Z,1.63
2017-09-03T07:47:34.458Z,2.27
2017-09-03T07:50:01.271Z,2.37
2017-09-03T07:52:27.450Z,1.63
2017-09-03T07:54:53.847Z,2.07
2017-09-03T07:57:20.059Z,1.83
2017-09-03T07:59:46.266Z,2.40
2017-09-03T08:02:12.545Z,2.33
2017-09-03T08:04:38.884Z,1.73
2017-09-03T08:07:05.116Z,1.80
2017-09-03T08:09:31.430Z,3.80
2017-09-03T08:11:57.668Z,1.80
2017-09-03T08:14:23.987Z,2.33
2017-09-03T08:16:50.241Z,2.37
2017-09-03T08:19:16.550Z,3.07
2017-09-03T08:21:42.722Z,2.20
2017-09-03T08:24:09.622Z,1.67
2017-09-03T08:26:35.848Z,1.43
2017-09-03T08:29:02.173Z,1.53
2017-09-03T08:31:28.556Z,1.53
2017-09-03T08:33:55.032Z,1.90
2017-09-03T08:36:22.332Z,1.50
2017-09-03T08:38:48.810Z,1.43
2017-09-03T08:41:15.261Z,1.80
2017-09-03T08:43:41.490Z,1.70
2017-09-03T08:46:07.787Z,2.00
2017-09-03T08:48:34.072Z,3.60
2017-09-03T08:51:00.386Z,1.37
2017-09-03T08:53:26.751Z,3.07
2017-09-03T08:55:53.037Z,1.73
2017-09-03T08:58:19.274Z,1.50
2017-09-03T09:00:45.542Z,2.00
2017-09-03T09:03:11.845Z,1.80
2017-09-03T09:05:38.197Z,1.20
2017-09-03T09:08:04.540Z,2.40
2017-09-03T09:10:30.745Z,4.23
2017-09-03T09:12:57.023Z,1.47
2017-09-03T09:15:23.219Z,1.00
2017-09-03T09:17:49.611Z,1.63
2017-09-03T09:20:15.996Z,4.00
2017-09-03T09:22:42.291Z,1.47
2017-09-03T09:25:08.601Z,1.90
2017-09-03T09:27:35.125Z,1.60
2017-09-03T09:30:01.565Z,1.10
2017-09-03T09:32:28.092Z,1.37
2017-09-03T09:34:54.532Z,2.27
2017-09-03T09:37:20.919Z,2.43
2017-09-03T09:39:47.255Z,1.10
2017-09-03T09:42:13.546Z,1.60
2017-09-03T09:44:39.844Z,6.07
2017-09-03T09:47:06.201Z,1.30
2017-09-03T09:49:32.471Z,1.20
2017-09-03T09:51:58.792Z,1.60
2017-09-03T09:54:25.156Z,4.17
2017-09-03T09:56:51.554Z,1.37
2017-09-03T09:59:17.891Z,2.77
2017-09-03T10:01:44.228Z,1.60
2017-09-03T10:04:10.473Z,1.20
2017-09-03T10:06:36.673Z,6.07
2017-09-03T10:09:03.014Z,1.20
2017-09-03T10:11:29.267Z,2.00
2017-09-03T10:13:55.503Z,1.67
2017-09-03T10:16:21.824Z,1.77
2017-09-03T10:18:48.117Z,1.57
2017-09-03T10:21:14.449Z,1.17
2017-09-03T10:23:40.754Z,1.27
2017-09-03T10:26:06.990Z,2.23
2017-09-03T10:28:33.337Z,1.60
2017-09-03T10:30:59.574Z,1.30
2017-09-03T10:33:25.815Z,1.60
2017-09-03T10:35:52.092Z,1.23
2017-09-03T10:38:18.364Z,1.40
2017-09-03T10:40:44.639Z,2.83
2017-09-03T10:43:11.020Z,2.00
2017-09-03T10:45:37.412Z,3.43
2017-09-03T10:48:03.701Z,1.83
2017-09-03T10:50:29.972Z,1.33
2017-09-03T10:52:56.328Z,1.10
2017-09-03T10:55:22.767Z,1.90
2017-09-03T10:57:49.054Z,2.20
2017-09-03T11:00:15.351Z,3.07
2017-09-03T11:02:41.575Z,1.40
2017-09-03T11:05:08.025Z,2.43
2017-09-03T11:07:34.521Z,1.30
2017-09-03T11:10:00.893Z,1.70
2017-09-03T11:12:27.216Z,1.40
2017-09-03T11:14:53.727Z,1.30
2017-09-03T11:17:20.048Z,1.33
2017-09-03T11:19:46.361Z,1.70
2017-09-03T11:22:12.631Z,1.47
2017-09-03T11:24:39.033Z,2.63
2017-09-03T11:27:05.389Z,2.70
2017-09-03T11:29:31.701Z,2.83
2017-09-03T11:31:58.000Z,1.40
2017-09-03T11:34:24.412Z,1.47
2017-09-03T11:36:50.753Z,1.73
2017-09-03T11:39:16.943Z,1.20
2017-09-03T11:41:43.210Z,1.60
2017-09-03T11:44:09.540Z,2.17
2017-09-03T11:46:35.900Z,1.90
2017-09-03T11:49:02.301Z,2.70
2017-09-03T11:51:28.663Z,1.30
2017-09-03T11:53:55.069Z,2.00
2017-09-03T11:56:21.489Z,1.70
2017-09-03T11:58:47.846Z,1.40
2017-09-03T12:01:14.224Z,1.50
2017-09-03T12:03:40.580Z,1.50
2017-09-03T12:06:06.898Z,2.97
2017-09-03T12:08:33.084Z,2.37
2017-09-03T12:10:59.441Z,1.60
2017-09-03T12:13:25.708Z,1.63
2017-09-03T12:15:51.920Z,1.70
2017-09-03T12:18:18.197Z,1.83
2017-09-03T12:20:44.379Z,2.10
2017-09-03T12:23:10.665Z,1.63
2017-09-03T12:25:36.870Z,1.47
2017-09-03T12:28:03.150Z,1.50
2017-09-03T12:30:29.401Z,1.70
2017-09-03T12:32:55.689Z,1.63
2017-09-03T12:35:22.029Z,1.60
2017-09-03T12:37:48.390Z,5.23
2017-09-03T12:40:14.785Z,1.73
2017-09-03T12:42:41.354Z,3.63
2017-09-03T12:45:08.234Z,2.50
2017-09-03T12:47:34.725Z,2.57
2017-09-03T12:50:01.028Z,2.03
2017-09-03T12:52:27.413Z,1.73
2017-09-03T12:54:53.751Z,2.87
2017-09-03T12:57:20.161Z,1.40
2017-09-03T12:59:46.539Z,1.77
2017-09-03T13:02:12.878Z,1.80
2017-09-03T13:04:39.243Z,4.13
2017-09-03T13:07:05.541Z,1.37
2017-09-03T13:09:31.801Z,1.70
2017-09-03T13:11:58.140Z,1.27
2017-09-03T13:14:24.381Z,1.33
2017-09-03T13:16:50.601Z,1.07
2017-09-03T13:19:17.293Z,4.57
2017-09-03T13:21:43.590Z,3.10
2017-09-03T13:24:09.905Z,2.40
2017-09-03T13:26:36.161Z,1.70
2017-09-03T13:29:02.470Z,2.70
2017-09-03T13:31:28.717Z,1.30
2017-09-03T13:33:55.029Z,2.93
2017-09-03T13:36:21.329Z,1.30
2017-09-03T13:38:47.611Z,5.20
2017-09-03T13:41:13.836Z,1.83
2017-09-03T13:43:40.063Z,1.40
2017-09-03T13:46:06.348Z,1.60
2017-09-03T13:48:32.600Z,1.67
2017-09-03T13:52:44.073Z,1.60
2017-09-03T13:55:10.380Z,1.60
2017-09-03T13:57:36.794Z,1.50
2017-09-03T14:00:03.072Z,1.30
2017-09-03T14:02:29.273Z,1.30
2017-09-03T14:04:55.561Z,1.13
2017-09-03T14:07:21.817Z,2.10
2017-09-03T14:09:48.147Z,1.30
2017-09-03T14:12:14.466Z,1.10
2017-09-03T14:14:40.701Z,1.20
2017-09-03T14:17:07.089Z,3.37
2017-09-03T14:19:33.329Z,1.73
2017-09-03T14:21:59.561Z,1.50
2017-09-03T14:24:25.862Z,1.33
2017-09-03T14:28:54.063Z,1.37
2017-09-03T14:31:20.474Z,1.30
2017-09-03T14:33:46.737Z,1.90
2017-09-03T14:36:13.408Z,1.33
2017-09-03T14:38:39.725Z,1.53
2017-09-03T14:41:07.196Z,4.50
2017-09-03T14:44:41.035Z,2.30
2017-09-03T14:47:07.379Z,1.47
2017-09-03T14:49:33.655Z,1.60
2017-09-03T14:51:59.969Z,1.37
2017-09-03T14:54:27.319Z,1.57
2017-09-03T14:56:53.603Z,1.63
2017-09-03T14:59:19.832Z,1.27
2017-09-03T15:03:20.044Z,1.03
2017-09-03T15:05:46.327Z,1.73
2017-09-03T15:08:12.558Z,2.87
2017-09-03T15:12:11.123Z,1.23
2017-09-03T15:14:37.571Z,1.53
2017-09-03T15:17:03.996Z,1.23
2017-09-03T15:19:30.278Z,1.30
2017-09-03T15:21:56.550Z,1.90
2017-09-03T15:24:22.941Z,1.50
2017-09-03T15:26:49.172Z,3.20
2017-09-03T15:29:15.400Z,2.83
2017-09-03T15:31:41.765Z,1.77
2017-09-03T15:34:08.049Z,2.97
2017-09-03T15:36:34.421Z,1.93
2017-09-03T15:39:00.994Z,4.70
2017-09-03T15:43:39.977Z,1.90
2017-09-03T15:46:07.461Z,2.23
2017-09-03T15:48:35.439Z,2.33
2017-09-03T15:51:01.679Z,1.70
2017-09-03T15:53:28.970Z,2.63
2017-09-03T15:55:55.271Z,1.90
2017-09-03T15:58:21.576Z,1.83
2017-09-03T16:00:47.813Z,3.90
2017-09-03T16:03:14.158Z,1.30
2017-09-03T16:05:40.534Z,2.20
2017-09-03T16:08:07.507Z,1.60
2017-09-03T16:10:33.733Z,1.63
2017-09-03T16:12:59.966Z,2.50
2017-09-03T16:15:27.036Z,2.70
2017-09-03T16:17:53.513Z,4.90
2017-09-03T16:20:19.903Z,1.60
2017-09-03T16:22:46.186Z,1.23
2017-09-03T16:25:12.466Z,2.47
2017-09-03T16:27:39.332Z,1.80
2017-09-03T16:30:05.593Z,1.13
2017-09-03T16:32:31.946Z,2.73
2017-09-03T16:34:58.211Z,1.60
2017-09-03T16:37:24.545Z,1.47
2017-09-03T16:39:51.203Z,1.27
2017-09-03T16:42:17.627Z,1.40
2017-09-03T16:44:43.889Z,7.23
2017-09-03T16:47:10.298Z,2.80
2017-09-03T16:49:37.410Z,1.50
2017-09-03T16:52:03.750Z,1.60
2017-09-03T16:54:30.013Z,1.60
2017-09-03T16:56:56.320Z,1.90
2017-09-03T16:59:22.595Z,1.33
2017-09-03T17:01:48.914Z,3.30
2017-09-03T17:04:15.228Z,1.50
2017-09-03T17:06:42.567Z,1.70
2017-09-03T17:09:08.930Z,1.67
2017-09-03T17:11:35.140Z,3.00
2017-09-03T17:14:01.445Z,1.70
2017-09-03T17:16:27.743Z,1.53
2017-09-03T17:18:54.149Z,2.10
2017-09-03T17:21:20.398Z,1.70
2017-09-03T17:23:46.667Z,1.53
2017-09-03T17:26:12.890Z,2.33
2017-09-03T17:28:39.826Z,1.73
2017-09-03T17:31:06.198Z,1.97
2017-09-03T17:33:32.499Z,1.70
2017-09-03T17:35:58.839Z,2.07
2017-09-03T17:38:40.075Z,2.00
2017-09-03T17:41:06.412Z,2.37
2017-09-03T17:43:32.881Z,2.30
2017-09-03T17:45:59.281Z,5.17
2017-09-03T17:48:25.665Z,6.20
2017-09-03T17:50:51.966Z,1.70
2017-09-03T17:53:18.676Z,1.80
2017-09-03T17:55:45.320Z,1.73
2017-09-03T17:58:11.632Z,3.43
2017-09-03T18:00:37.893Z,1.73
2017-09-03T18:03:05.277Z,3.43
2017-09-03T18:05:32.609Z,2.57
2017-09-03T18:07:58.892Z,1.80
2017-09-03T18:10:25.133Z,2.37
2017-09-03T18:12:51.451Z,1.80
2017-09-03T18:15:17.795Z,2.40
2017-09-03T18:17:44.072Z,2.37
2017-09-03T18:20:10.349Z,2.10
2017-09-03T18:22:36.669Z,2.63
2017-09-03T18:25:02.938Z,3.07
2017-09-03T18:27:31.375Z,2.30
2017-09-03T18:29:57.660Z,2.10
2017-09-03T18:32:24.051Z,3.20
2017-09-03T18:34:50.647Z,6.13
2017-09-03T18:37:23.154Z,2.90
2017-09-03T18:39:58.421Z,4.37
2017-09-03T18:42:24.784Z,2.67
2017-09-03T18:44:51.217Z,2.53
2017-09-03T18:47:17.740Z,3.03
2017-09-03T18:49:44.910Z,3.37
2017-09-03T18:52:12.279Z,3.90
2017-09-03T18:54:40.586Z,2.97
2017-09-03T18:57:06.960Z,3.57
2017-09-03T19:02:38.885Z,3.67
2017-09-03T19:05:05.193Z,3.30
2017-09-03T19:07:32.195Z,4.20
2017-09-03T19:09:58.634Z,4.53
2017-09-03T19:12:24.940Z,8.63
2017-09-03T19:14:51.329Z,6.10
2017-09-03T19:17:17.697Z,5.80
2017-09-03T19:19:44.173Z,4.30
2017-09-03T19:22:10.521Z,6.30
2017-09-03T19:24:37.113Z,9.40
2017-09-03T19:27:03.531Z,7.73
2017-09-03T19:29:29.921Z,7.73
2017-09-03T19:31:56.282Z,6.57
2017-09-03T19:34:22.685Z,5.93
2017-09-03T19:36:51.043Z,11.93
2017-09-03T19:39:17.489Z,14.00
2017-09-03T19:41:43.787Z,13.30
2017-09-03T19:44:10.862Z,9.83
2017-09-03T19:46:37.131Z,15.70
2017-09-03T19:49:04.008Z,9.40
2017-09-03T19:51:30.313Z,9.83
2017-09-03T19:53:56.838Z,11.80
2017-09-03T19:56:23.245Z,13.40
2017-09-03T20:00:51.343Z,12.85
2017-09-03T20:03:17.619Z,10.83
2017-09-03T20:05:43.903Z,14.47
2017-09-03T20:08:10.252Z,17.93
2017-09-03T20:10:37.446Z,15.30
2017-09-03T20:13:03.822Z,20.23
2017-09-03T20:15:30.229Z,9.30
2017-09-03T20:17:56.600Z,13.43
2017-09-03T20:20:22.912Z,15.50
2017-09-03T20:22:49.234Z,10.13
2017-09-03T20:25:15.509Z,22.57
2017-09-03T20:27:41.808Z,15.20
2017-09-03T20:30:08.130Z,11.23
2017-09-03T20:32:34.413Z,11.83
2017-09-03T20:35:00.759Z,12.03
2017-09-03T20:37:26.960Z,8.80
2017-09-03T20:39:53.225Z,11.10
2017-09-03T20:42:19.541Z,18.47
2017-09-03T20:44:45.920Z,9.77
2017-09-03T20:47:12.272Z,14.13
2017-09-03T20:49:38.540Z,14.37
2017-09-03T20:52:04.799Z,15.53
2017-09-03T20:54:31.019Z,27.20
2017-09-03T20:56:57.297Z,22.97
2017-09-03T20:59:23.674Z,24.13
2017-09-03T21:01:50.116Z,21.13
2017-09-03T21:04:16.460Z,26.80
2017-09-03T21:06:42.736Z,29.77
2017-09-03T21:09:09.091Z,21.40
2017-09-03T21:11:35.363Z,19.17
2017-09-03T21:14:01.639Z,22.63
2017-09-03T21:16:27.987Z,15.27
2017-09-03T21:18:54.438Z,16.27
2017-09-03T21:21:20.658Z,11.23
2017-09-03T21:23:46.949Z,15.97
2017-09-03T21:26:13.239Z,17.70
2017-09-03T21:28:39.482Z,27.57
2017-09-03T21:31:05.749Z,23.80
2017-09-03T21:33:31.992Z,37.00
2017-09-03T21:35:58.160Z,29.93
2017-09-03T21:38:24.446Z,26.83
2017-09-03T21:40:50.663Z,31.80
2017-09-03T21:43:16.987Z,20.40
2017-09-03T21:45:43.820Z,22.67
2017-09-03T21:48:10.159Z,17.33
2017-09-03T21:50:36.443Z,18.57
2017-09-03T21:53:02.691Z,19.13
2017-09-03T21:55:29.082Z,16.03
2017-09-03T21:57:55.340Z,14.73
2017-09-03T22:00:21.603Z,20.73
2017-09-03T22:02:47.868Z,19.20
2017-09-03T22:05:14.436Z,14.00
2017-09-03T22:07:41.120Z,13.33
2017-09-03T22:10:07.426Z,16.57
2017-09-03T22:12:33.737Z,17.50
2017-09-03T22:15:00.037Z,15.77
2017-09-03T22:17:26.446Z,10.27
2017-09-03T22:19:52.666Z,12.47
2017-09-03T22:22:19.018Z,10.50
2017-09-03T22:24:45.289Z,17.43
2017-09-03T22:27:11.587Z,15.17
2017-09-03T22:29:37.896Z,14.53
2017-09-03T22:32:04.215Z,11.33
2017-09-03T22:34:30.547Z,11.70
2017-09-03T22:36:57.122Z,13.10
2017-09-03T22:39:23.301Z,23.90
2017-09-03T22:41:49.600Z,15.97
2017-09-03T22:44:15.809Z,23.60
2017-09-03T22:46:42.047Z,28.57
2017-09-03T22:49:08.319Z,34.47
2017-09-03T22:51:34.592Z,30.83
2017-09-03T22:54:00.907Z,33.43
2017-09-03T22:56:27.182Z,25.97
2017-09-03T22:58:53.394Z,34.20
2017-09-03T23:01:19.668Z,33.90
2017-09-03T23:03:45.954Z,39.93
2017-09-03T23:06:12.144Z,33.93
2017-09-03T23:08:38.354Z,39.70
2017-09-03T23:11:04.606Z,34.60
2017-09-03T23:13:30.929Z,30.60
2017-09-03T23:15:57.949Z,26.23
2017-09-03T23:18:24.937Z,22.90
2017-09-03T23:20:51.134Z,26.47
2017-09-03T23:23:17.467Z,22.87
2017-09-03T23:25:43.783Z,19.73
2017-09-03T23:28:10.066Z,21.07
2017-09-03T23:30:36.313Z,27.77
2017-09-03T23:33:02.596Z,20.63
2017-09-03T23:35:28.970Z,25.83
2017-09-03T23:37:55.225Z,23.53
2017-09-03T23:40:21.573Z,19.47
2017-09-03T23:42:47.872Z,20.03
2017-09-03T23:45:14.168Z,20.87
2017-09-03T23:47:41.433Z,24.57
2017-09-03T23:50:07.899Z,20.70
2017-09-03T23:52:34.213Z,16.33
2017-09-03T23:55:00.500Z,11.87
2017-09-03T23:57:26.689Z,14.53
2017-09-03T23:59:53.096Z,20.30
